Driggs, Idaho
Current Conditions -  °F | °C
As of 3:56 AM on Friday 31 Oct 2014 (Local Time) from KDIJ Reporting Station
Clear Clear  
Wind Chill: 35°   Ceiling: Unl
Heat Index: 39°   Visibility: 10mi
Dew Point: 30°   Wind: 6mph
Humidity: 71%   Direction: 20°NNE
Pressure: 30.12"   Gusts: NA
Location:  43.72°N, 111.11°W
Report Text: KDIJ 310956Z AUTO 02005KT 10SM CLR 04/M01 A3012 RMK AO2 T00381011 SLP146
Loading
Personal Weather Stations






























Interactive Weather Map
Tropical Storm Tracking
New forecast layout! Learn more

10-Day Weather Forecast

Advertisements
Track Severe Weather on mobile